sensor_id;sensor_type;location;lat;lon;timestamp;pressure;altitude;pressure_sealevel;temperature;humidity
39443;BME280;25147;52.142;9.960;2023-06-22T00:00:22;100639.44;;;17.27;100.00
39443;BME280;25147;52.142;9.960;2023-06-22T00:02:49;100698.28;;;17.55;100.00
39443;BME280;25147;52.142;9.960;2023-06-22T00:05:26;100722.50;;;17.67;100.00
39443;BME280;25147;52.142;9.960;2023-06-22T00:08:11;100631.25;;;17.11;100.00
39443;BME280;25147;52.142;9.960;2023-06-22T00:10:58;100821.38;;;18.11;100.00
39443;BME280;25147;52.142;9.960;2023-06-22T00:13:31;100609.22;;;16.88;100.00
39443;BME280;25147;52.142;9.960;2023-06-22T01:15:04;100756.16;;;17.42;100.00
39443;BME280;25147;52.142;9.960;2023-06-22T01:17:42;100678.94;;;17.09;100.00
39443;BME280;25147;52.142;9.960;2023-06-22T01:20:19;100865.38;;;18.15;100.00
39443;BME280;25147;52.142;9.960;2023-06-22T01:23:11;100578.84;;;16.29;100.00
39443;BME280;25147;52.142;9.960;2023-06-22T01:26:16;100559.41;;;16.30;100.00
39443;BME280;25147;52.142;9.960;2023-06-22T01:28:57;100740.84;;;17.27;100.00
39443;BME280;25147;52.142;9.960;2023-06-22T01:31:40;100529.28;;;15.89;100.00
39443;BME280;25147;52.142;9.960;2023-06-22T01:34:14;100672.44;;;16.71;100.00
39443;BME280;25147;52.142;9.960;2023-06-22T01:36:43;100737.88;;;17.13;100.00
39443;BME280;25147;52.142;9.960;2023-06-22T01:39:11;100620.94;;;16.34;100.00
39443;BME280;25147;52.142;9.960;2023-06-22T01:41:41;100887.69;;;17.88;100.00
39443;BME280;25147;52.142;9.960;2023-06-22T01:44:21;100610.59;;;16.04;100.00
39443;BME280;25147;52.142;9.960;2023-06-22T01:47:12;100667.97;;;16.49;100.00
39443;BME280;25147;52.142;9.960;2023-06-22T01:49:53;100909.28;;;17.77;100.00
39443;BME280;25147;52.142;9.960;2023-06-22T01:53:02;100589.03;;;15.91;100.00
39443;BME280;25147;52.142;9.960;2023-06-22T01:55:47;100851.31;;;17.69;100.00
39443;BME280;25147;52.142;9.960;2023-06-22T01:58:19;100618.13;;;16.15;100.00
39443;BME280;25147;52.142;9.960;2023-06-22T02:00:56;100598.28;;;16.03;100.00
39443;BME280;25147;52.142;9.960;2023-06-22T02:03:38;100578.69;;;15.85;100.00
39443;BME280;25147;52.142;9.960;2023-06-22T02:06:23;100600.97;;;16.01;100.00
39443;BME280;25147;52.142;9.960;2023-06-22T02:12:39;100807.88;;;17.28;100.00
39443;BME280;25147;52.142;9.960;2023-06-22T02:15:21;100876.03;;;17.68;100.00
39443;BME280;25147;52.142;9.960;2023-06-22T02:18:23;100600.69;;;15.86;100.00
39443;BME280;25147;52.142;9.960;2023-06-22T02:21:14;100583.50;;;15.74;100.00
39443;BME280;25147;52.142;9.960;2023-06-22T02:24:12;100595.44;;;15.84;100.00
39443;BME280;25147;52.142;9.960;2023-06-22T02:26:52;100592.00;;;15.82;100.00
39443;BME280;25147;52.142;9.960;2023-06-22T02:29:44;100598.19;;;15.81;100.00
39443;BME280;25147;52.142;9.960;2023-06-22T02:38:24;100581.22;;;15.88;100.00
39443;BME280;25147;52.142;9.960;2023-06-22T02:41:09;100920.78;;;17.76;100.00
39443;BME280;25147;52.142;9.960;2023-06-22T02:43:49;100622.09;;;16.01;100.00
39443;BME280;25147;52.142;9.960;2023-06-22T02:46:36;100720.88;;;16.48;100.00
39443;BME280;25147;52.142;9.960;2023-06-22T02:49:20;100905.50;;;17.82;100.00
39443;BME280;25147;52.142;9.960;2023-06-22T02:51:54;100623.28;;;15.93;100.00
39443;BME280;25147;52.142;9.960;2023-06-22T02:54:54;100601.97;;;15.74;100.00
39443;BME280;25147;52.142;9.960;2023-06-22T02:57:38;100956.00;;;17.78;100.00
39443;BME280;25147;52.142;9.960;2023-06-22T03:00:21;100654.78;;;15.99;100.00
39443;BME280;25147;52.142;9.960;2023-06-22T03:03:03;100661.50;;;16.08;100.00
39443;BME280;25147;52.142;9.960;2023-06-22T03:05:42;100840.50;;;17.28;100.00
39443;BME280;25147;52.142;9.960;2023-06-22T03:11:29;100642.31;;;16.02;100.00
39443;BME280;25147;52.142;9.960;2023-06-22T03:14:09;100618.94;;;15.92;100.00
39443;BME280;25147;52.142;9.960;2023-06-22T03:16:53;100633.03;;;16.16;100.00
39443;BME280;25147;52.142;9.960;2023-06-22T03:19:39;100924.63;;;17.91;100.00
39443;BME280;25147;52.142;9.960;2023-06-22T03:22:12;100646.31;;;16.14;100.00
39443;BME280;25147;52.142;9.960;2023-06-22T03:24:42;100643.22;;;16.27;100.00
39443;BME280;25147;52.142;9.960;2023-06-22T03:27:29;100613.53;;;15.95;100.00
39443;BME280;25147;52.142;9.960;2023-06-22T03:29:59;100635.16;;;16.06;100.00
39443;BME280;25147;52.142;9.960;2023-06-22T03:33:06;100651.47;;;16.17;100.00
39443;BME280;25147;52.142;9.960;2023-06-22T03:35:58;100655.34;;;16.32;100.00
39443;BME280;25147;52.142;9.960;2023-06-22T03:38:31;100748.44;;;16.89;100.00
39443;BME280;25147;52.142;9.960;2023-06-22T03:41:19;100951.09;;;17.92;100.00
39443;BME280;25147;52.142;9.960;2023-06-22T03:47:57;100915.75;;;17.93;100.00
39443;BME280;25147;52.142;9.960;2023-06-22T03:51:10;100643.47;;;16.20;100.00
39443;BME280;25147;52.142;9.960;2023-06-22T04:01:09;100587.69;;;16.04;100.00
39443;BME280;25147;52.142;9.960;2023-06-22T04:03:47;100603.38;;;16.33;100.00
39443;BME280;25147;52.142;9.960;2023-06-22T04:06:45;100635.66;;;16.41;100.00
39443;BME280;25147;52.142;9.960;2023-06-22T04:09:41;100681.97;;;16.75;100.00
39443;BME280;25147;52.142;9.960;2023-06-22T04:12:54;100630.44;;;16.39;100.00
39443;BME280;25147;52.142;9.960;2023-06-22T04:15:33;100923.38;;;18.23;100.00
39443;BME280;25147;52.142;9.960;2023-06-22T04:39:23;100709.44;;;16.96;100.00
39443;BME280;25147;52.142;9.960;2023-06-22T04:45:42;100651.34;;;16.69;100.00
39443;BME280;25147;52.142;9.960;2023-06-22T04:48:34;100615.91;;;16.51;100.00
39443;BME280;25147;52.142;9.960;2023-06-22T04:51:14;100631.25;;;16.65;100.00
39443;BME280;25147;52.142;9.960;2023-06-22T04:53:53;100615.72;;;16.56;100.00
39443;BME280;25147;52.142;9.960;2023-06-22T04:56:46;100668.25;;;16.89;100.00
39443;BME280;25147;52.142;9.960;2023-06-22T04:59:37;100644.75;;;16.81;100.00
39443;BME280;25147;52.142;9.960;2023-06-22T05:02:22;100710.94;;;17.25;100.00
39443;BME280;25147;52.142;9.960;2023-06-22T05:05:06;100632.28;;;16.84;100.00
39443;BME280;25147;52.142;9.960;2023-06-22T05:09:01;100904.78;;;18.67;100.00
39443;BME280;25147;52.142;9.960;2023-06-22T05:11:47;100889.00;;;18.64;100.00
39443;BME280;25147;52.142;9.960;2023-06-22T05:14:18;100651.56;;;17.10;100.00
39443;BME280;25147;52.142;9.960;2023-06-22T05:16:48;100619.13;;;17.05;100.00
39443;BME280;25147;52.142;9.960;2023-06-22T05:19:26;100625.66;;;16.96;100.00
39443;BME280;25147;52.142;9.960;2023-06-22T05:22:05;100782.69;;;18.07;100.00
39443;BME280;25147;52.142;9.960;2023-06-22T05:24:37;100569.22;;;16.74;100.00
39443;BME280;25147;52.142;9.960;2023-06-22T05:27:48;100624.56;;;17.02;100.00
39443;BME280;25147;52.142;9.960;2023-06-22T05:30:22;100899.00;;;18.79;100.00
39443;BME280;25147;52.142;9.960;2023-06-22T05:33:04;100685.34;;;17.48;100.00
39443;BME280;25147;52.142;9.960;2023-06-22T05:35:50;100609.19;;;17.12;100.00
39443;BME280;25147;52.142;9.960;2023-06-22T05:38:34;100931.75;;;18.99;100.00
39443;BME280;25147;52.142;9.960;2023-06-22T05:41:07;100906.75;;;19.04;100.00
39443;BME280;25147;52.142;9.960;2023-06-22T05:43:40;100635.00;;;17.49;100.00
39443;BME280;25147;52.142;9.960;2023-06-22T05:46:26;100635.66;;;17.54;100.00
39443;BME280;25147;52.142;9.960;2023-06-22T05:49:01;100613.09;;;17.66;100.00
39443;BME280;25147;52.142;9.960;2023-06-22T05:51:29;100647.19;;;17.74;100.00
39443;BME280;25147;52.142;9.960;2023-06-22T05:54:02;100676.53;;;17.91;100.00
39443;BME280;25147;52.142;9.960;2023-06-22T05:56:42;100636.72;;;17.71;100.00
39443;BME280;25147;52.142;9.960;2023-06-22T05:59:18;100667.78;;;18.10;100.00
39443;BME280;25147;52.142;9.960;2023-06-22T06:01:47;100621.88;;;17.89;100.00
39443;BME280;25147;52.142;9.960;2023-06-22T06:04:30;100816.97;;;19.14;100.00
39443;BME280;25147;52.142;9.960;2023-06-22T06:07:25;100647.91;;;17.99;100.00
39443;BME280;25147;52.142;9.960;2023-06-22T06:10:30;100882.03;;;19.62;100.00
39443;BME280;25147;52.142;9.960;2023-06-22T06:13:16;100624.06;;;18.20;100.00
39443;BME280;25147;52.142;9.960;2023-06-22T06:19:27;100643.19;;;18.27;100.00
39443;BME280;25147;52.142;9.960;2023-06-22T07:54:35;100875.59;;;21.46;93.70
39443;BME280;25147;52.142;9.960;2023-06-22T12:07:37;100410.06;;;25.34;64.63
39443;BME280;25147;52.142;9.960;2023-06-22T12:10:13;100631.56;;;26.85;63.87
39443;BME280;25147;52.142;9.960;2023-06-22T12:12:59;100369.75;;;25.24;64.20
39443;BME280;25147;52.142;9.960;2023-06-22T12:15:31;100401.03;;;25.46;63.94
39443;BME280;25147;52.142;9.960;2023-06-22T12:18:18;100478.22;;;25.76;64.15
39443;BME280;25147;52.142;9.960;2023-06-22T12:20:53;100474.56;;;25.77;64.43
39443;BME280;25147;52.142;9.960;2023-06-22T12:23:30;100352.53;;;25.04;64.65
39443;BME280;25147;52.142;9.960;2023-06-22T12:28:34;100364.25;;;25.26;64.73
39443;BME280;25147;52.142;9.960;2023-06-22T12:31:39;100371.31;;;25.27;64.90
39443;BME280;25147;52.142;9.960;2023-06-22T12:34:47;100444.00;;;25.91;63.72
39443;BME280;25147;52.142;9.960;2023-06-22T12:37:52;100366.22;;;25.57;64.21
39443;BME280;25147;52.142;9.960;2023-06-22T12:41:25;100512.06;;;26.68;62.59
39443;BME280;25147;52.142;9.960;2023-06-22T12:47:46;100571.81;;;27.78;59.93
39443;BME280;25147;52.142;9.960;2023-06-22T12:53:13;100566.09;;;28.13;57.30
39443;BME280;25147;52.142;9.960;2023-06-22T12:56:15;100349.47;;;26.85;56.94
39443;BME280;25147;52.142;9.960;2023-06-22T13:02:09;100343.56;;;26.91;56.21
39443;BME280;25147;52.142;9.960;2023-06-22T13:05:25;100371.69;;;26.87;56.18
39443;BME280;25147;52.142;9.960;2023-06-22T13:08:28;100568.63;;;28.05;56.33
39443;BME280;25147;52.142;9.960;2023-06-22T15:38:52;100137.84;;;23.23;79.67
39443;BME280;25147;52.142;9.960;2023-06-22T15:41:39;100150.88;;;22.66;83.15
39443;BME280;25147;52.142;9.960;2023-06-22T15:44:09;100304.94;;;23.15;93.10
39443;BME280;25147;52.142;9.960;2023-06-22T15:46:38;100425.41;;;22.16;100.00
39443;BME280;25147;52.142;9.960;2023-06-22T15:49:05;100230.91;;;20.00;100.00
39443;BME280;25147;52.142;9.960;2023-06-22T15:51:32;100382.72;;;20.10;100.00
39443;BME280;25147;52.142;9.960;2023-06-22T15:54:00;100360.56;;;19.46;100.00
39443;BME280;25147;52.142;9.960;2023-06-22T15:56:31;100233.94;;;18.31;100.00
39443;BME280;25147;52.142;9.960;2023-06-22T15:58:58;100403.69;;;18.83;100.00
39443;BME280;25147;52.142;9.960;2023-06-22T16:01:25;100407.72;;;18.90;100.00
39443;BME280;25147;52.142;9.960;2023-06-22T16:03:54;100446.50;;;19.10;100.00
39443;BME280;25147;52.142;9.960;2023-06-22T16:06:27;100327.47;;;18.15;100.00
39443;BME280;25147;52.142;9.960;2023-06-22T16:08:58;100286.78;;;17.80;100.00
39443;BME280;25147;52.142;9.960;2023-06-22T16:11:32;100265.75;;;17.58;100.00
39443;BME280;25147;52.142;9.960;2023-06-22T16:13:59;100304.47;;;17.79;100.00
39443;BME280;25147;52.142;9.960;2023-06-22T16:16:26;100325.69;;;18.16;100.00
39443;BME280;25147;52.142;9.960;2023-06-22T16:18:53;100400.50;;;18.40;100.00
39443;BME280;25147;52.142;9.960;2023-06-22T16:21:20;100394.66;;;18.32;100.00
39443;BME280;25147;52.142;9.960;2023-06-22T16:23:47;100221.00;;;17.15;100.00
39443;BME280;25147;52.142;9.960;2023-06-22T16:26:16;100211.50;;;17.11;100.00
39443;BME280;25147;52.142;9.960;2023-06-22T16:28:46;100030.25;;;16.09;100.00
39443;BME280;25147;52.142;9.960;2023-06-22T16:31:13;100302.09;;;17.73;100.00
39443;BME280;25147;52.142;9.960;2023-06-22T16:33:44;100236.50;;;17.42;100.00
39443;BME280;25147;52.142;9.960;2023-06-22T16:36:15;99946.16;;;15.81;100.00
39443;BME280;25147;52.142;9.960;2023-06-22T16:38:42;100146.53;;;17.42;100.00
39443;BME280;25147;52.142;9.960;2023-06-22T16:41:10;100146.59;;;17.77;100.00
39443;BME280;25147;52.142;9.960;2023-06-22T16:43:39;100024.44;;;17.32;100.00
39443;BME280;25147;52.142;9.960;2023-06-22T16:46:11;100051.66;;;17.87;100.00
39443;BME280;25147;52.142;9.960;2023-06-22T16:48:50;100062.09;;;18.23;100.00
39443;BME280;25147;52.142;9.960;2023-06-22T16:51:19;100143.50;;;18.70;100.00
39443;BME280;25147;52.142;9.960;2023-06-22T16:53:46;100185.28;;;18.82;100.00
39443;BME280;25147;52.142;9.960;2023-06-22T16:56:22;100110.09;;;18.34;100.00
39443;BME280;25147;52.142;9.960;2023-06-22T16:58:50;100233.31;;;18.94;100.00
39443;BME280;25147;52.142;9.960;2023-06-22T17:01:20;100234.78;;;18.99;100.00
39443;BME280;25147;52.142;9.960;2023-06-22T17:03:52;100145.84;;;18.43;100.00
39443;BME280;25147;52.142;9.960;2023-06-22T17:06:23;100182.47;;;18.52;100.00
39443;BME280;25147;52.142;9.960;2023-06-22T17:08:53;100162.59;;;18.43;100.00
39443;BME280;25147;52.142;9.960;2023-06-22T17:11:22;100102.78;;;18.22;100.00
39443;BME280;25147;52.142;9.960;2023-06-22T17:13:49;100037.25;;;17.92;100.00
39443;BME280;25147;52.142;9.960;2023-06-22T17:16:18;100243.19;;;19.08;100.00
39443;BME280;25147;52.142;9.960;2023-06-22T17:18:46;100178.22;;;18.83;100.00
39443;BME280;25147;52.142;9.960;2023-06-22T17:21:20;100128.06;;;18.45;100.00
39443;BME280;25147;52.142;9.960;2023-06-22T17:23:48;100182.81;;;18.79;100.00
39443;BME280;25147;52.142;9.960;2023-06-22T17:26:14;100088.78;;;18.20;100.00
39443;BME280;25147;52.142;9.960;2023-06-22T17:28:48;100218.63;;;19.04;100.00
39443;BME280;25147;52.142;9.960;2023-06-22T17:31:15;100219.88;;;18.97;100.00
39443;BME280;25147;52.142;9.960;2023-06-22T17:33:48;100125.00;;;18.53;100.00
39443;BME280;25147;52.142;9.960;2023-06-22T17:36:16;100067.53;;;18.04;100.00
39443;BME280;25147;52.142;9.960;2023-06-22T17:38:43;100273.41;;;19.21;100.00
39443;BME280;25147;52.142;9.960;2023-06-22T17:41:10;100306.28;;;19.18;100.00
39443;BME280;25147;52.142;9.960;2023-06-22T17:43:45;100202.59;;;18.56;100.00
39443;BME280;25147;52.142;9.960;2023-06-22T17:46:13;100324.09;;;19.16;100.00
39443;BME280;25147;52.142;9.960;2023-06-22T17:48:47;100102.44;;;17.95;100.00
39443;BME280;25147;52.142;9.960;2023-06-22T17:51:14;100272.81;;;19.16;100.00
39443;BME280;25147;52.142;9.960;2023-06-22T17:53:47;100121.16;;;18.25;100.00
39443;BME280;25147;52.142;9.960;2023-06-22T17:56:17;100199.72;;;18.77;100.00
39443;BME280;25147;52.142;9.960;2023-06-22T17:58:51;100197.06;;;18.77;100.00
39443;BME280;25147;52.142;9.960;2023-06-22T18:01:32;100167.56;;;18.50;100.00
39443;BME280;25147;52.142;9.960;2023-06-22T18:04:10;100311.91;;;19.30;100.00
39443;BME280;25147;52.142;9.960;2023-06-22T18:06:39;100251.59;;;18.82;100.00
39443;BME280;25147;52.142;9.960;2023-06-22T18:09:08;100311.63;;;19.34;100.00
39443;BME280;25147;52.142;9.960;2023-06-22T18:14:53;100023.06;;;17.76;100.00
39443;BME280;25147;52.142;9.960;2023-06-22T18:17:21;100236.63;;;18.81;100.00
39443;BME280;25147;52.142;9.960;2023-06-22T18:19:51;100114.38;;;17.86;100.00
39443;BME280;25147;52.142;9.960;2023-06-22T18:22:19;100339.22;;;19.32;100.00
39443;BME280;25147;52.142;9.960;2023-06-22T18:24:48;100149.41;;;18.26;100.00
39443;BME280;25147;52.142;9.960;2023-06-22T18:27:16;100187.72;;;18.70;100.00
39443;BME280;25147;52.142;9.960;2023-06-22T18:29:43;100205.09;;;18.75;100.00
39443;BME280;25147;52.142;9.960;2023-06-22T18:32:11;100040.13;;;17.88;100.00
39443;BME280;25147;52.142;9.960;2023-06-22T18:34:39;100280.63;;;19.35;100.00
39443;BME280;25147;52.142;9.960;2023-06-22T18:37:13;100305.56;;;19.32;100.00
39443;BME280;25147;52.142;9.960;2023-06-22T18:39:43;100215.16;;;18.86;100.00
39443;BME280;25147;52.142;9.960;2023-06-22T18:42:14;100026.56;;;17.76;100.00
39443;BME280;25147;52.142;9.960;2023-06-22T18:44:41;100126.97;;;18.32;100.00
39443;BME280;25147;52.142;9.960;2023-06-22T18:47:09;100262.22;;;19.16;100.00
39443;BME280;25147;52.142;9.960;2023-06-22T18:49:47;100275.66;;;19.29;100.00
39443;BME280;25147;52.142;9.960;2023-06-22T18:52:17;100288.94;;;19.29;100.00
39443;BME280;25147;52.142;9.960;2023-06-22T18:54:46;100175.53;;;18.50;100.00
39443;BME280;25147;52.142;9.960;2023-06-22T18:57:14;100335.78;;;19.30;100.00
39443;BME280;25147;52.142;9.960;2023-06-22T18:59:46;100329.78;;;19.26;100.00
39443;BME280;25147;52.142;9.960;2023-06-22T19:02:14;100351.16;;;19.23;100.00
39443;BME280;25147;52.142;9.960;2023-06-22T19:04:43;100291.97;;;18.54;100.00
39443;BME280;25147;52.142;9.960;2023-06-22T19:07:10;100409.72;;;19.20;100.00
39443;BME280;25147;52.142;9.960;2023-06-22T19:09:40;100423.16;;;19.17;100.00
39443;BME280;25147;52.142;9.960;2023-06-22T19:12:18;100121.19;;;17.55;100.00
39443;BME280;25147;52.142;9.960;2023-06-22T19:15:41;100340.28;;;19.12;100.00
39443;BME280;25147;52.142;9.960;2023-06-22T19:18:16;100061.53;;;17.65;100.00
39443;BME280;25147;52.142;9.960;2023-06-22T19:20:46;100192.75;;;18.58;100.00
39443;BME280;25147;52.142;9.960;2023-06-22T19:23:23;100032.22;;;17.53;100.00
39443;BME280;25147;52.142;9.960;2023-06-22T19:25:57;100209.00;;;18.68;100.00
39443;BME280;25147;52.142;9.960;2023-06-22T19:28:28;100215.66;;;18.59;100.00
39443;BME280;25147;52.142;9.960;2023-06-22T19:30:59;100313.38;;;19.02;100.00
39443;BME280;25147;52.142;9.960;2023-06-22T19:33:27;100123.16;;;18.04;100.00
39443;BME280;25147;52.142;9.960;2023-06-22T19:36:01;100181.31;;;18.74;100.00
39443;BME280;25147;52.142;9.960;2023-06-22T19:38:34;100193.88;;;18.88;100.00
39443;BME280;25147;52.142;9.960;2023-06-22T19:41:25;99920.44;;;16.95;100.00
39443;BME280;25147;52.142;9.960;2023-06-22T19:43:52;99895.94;;;17.09;100.00
39443;BME280;25147;52.142;9.960;2023-06-22T19:46:34;99972.63;;;17.61;100.00
39443;BME280;25147;52.142;9.960;2023-06-22T19:49:04;100165.66;;;18.69;100.00
39443;BME280;25147;52.142;9.960;2023-06-22T19:51:31;100162.56;;;18.61;100.00
39443;BME280;25147;52.142;9.960;2023-06-22T19:54:04;100018.16;;;17.68;100.00
39443;BME280;25147;52.142;9.960;2023-06-22T19:56:32;100038.56;;;17.66;100.00
39443;BME280;25147;52.142;9.960;2023-06-22T19:59:10;100208.81;;;18.55;100.00
39443;BME280;25147;52.142;9.960;2023-06-22T20:01:45;100221.22;;;18.55;100.00
39443;BME280;25147;52.142;9.960;2023-06-22T20:04:17;100104.63;;;17.87;100.00
39443;BME280;25147;52.142;9.960;2023-06-22T20:07:01;100150.03;;;18.14;100.00
39443;BME280;25147;52.142;9.960;2023-06-22T20:09:28;100068.00;;;17.60;100.00
39443;BME280;25147;52.142;9.960;2023-06-22T20:11:57;100217.72;;;18.54;100.00
39443;BME280;25147;52.142;9.960;2023-06-22T20:14:29;99943.47;;;16.93;100.00
39443;BME280;25147;52.142;9.960;2023-06-22T20:16:57;100060.59;;;17.67;100.00
39443;BME280;25147;52.142;9.960;2023-06-22T20:19:34;100074.63;;;17.86;100.00
39443;BME280;25147;52.142;9.960;2023-06-22T20:22:04;100098.22;;;18.08;100.00
39443;BME280;25147;52.142;9.960;2023-06-22T20:24:31;100175.44;;;18.51;100.00
39443;BME280;25147;52.142;9.960;2023-06-22T20:30:14;100154.31;;;18.50;100.00
39443;BME280;25147;52.142;9.960;2023-06-22T20:32:55;100017.00;;;17.74;100.00
39443;BME280;25147;52.142;9.960;2023-06-22T20:35:23;100096.72;;;18.20;100.00
39443;BME280;25147;52.142;9.960;2023-06-22T20:37:51;100061.31;;;17.88;100.00
39443;BME280;25147;52.142;9.960;2023-06-22T20:40:21;99932.06;;;17.10;100.00
39443;BME280;25147;52.142;9.960;2023-06-22T20:42:54;100120.84;;;18.31;100.00
39443;BME280;25147;52.142;9.960;2023-06-22T20:45:25;100115.16;;;18.21;100.00
39443;BME280;25147;52.142;9.960;2023-06-22T20:47:53;100159.47;;;18.53;100.00
39443;BME280;25147;52.142;9.960;2023-06-22T20:50:21;100038.81;;;17.79;100.00
39443;BME280;25147;52.142;9.960;2023-06-22T20:52:48;100081.88;;;18.00;100.00
39443;BME280;25147;52.142;9.960;2023-06-22T20:55:17;100148.56;;;18.41;100.00
39443;BME280;25147;52.142;9.960;2023-06-22T20:57:44;100124.53;;;18.11;100.00
39443;BME280;25147;52.142;9.960;2023-06-22T21:00:12;100113.47;;;18.20;100.00
39443;BME280;25147;52.142;9.960;2023-06-22T21:02:41;100131.44;;;18.31;100.00
39443;BME280;25147;52.142;9.960;2023-06-22T21:05:09;99984.94;;;17.45;100.00
39443;BME280;25147;52.142;9.960;2023-06-22T21:07:37;100104.56;;;18.21;100.00
39443;BME280;25147;52.142;9.960;2023-06-22T21:10:04;100121.69;;;18.32;100.00
39443;BME280;25147;52.142;9.960;2023-06-22T21:12:32;100147.41;;;18.30;100.00
39443;BME280;25147;52.142;9.960;2023-06-22T21:15:00;99965.13;;;17.36;100.00
39443;BME280;25147;52.142;9.960;2023-06-22T21:17:31;100093.38;;;18.16;100.00
39443;BME280;25147;52.142;9.960;2023-06-22T21:19:59;100099.50;;;18.17;100.00
39443;BME280;25147;52.142;9.960;2023-06-22T21:22:33;100013.03;;;17.65;100.00
39443;BME280;25147;52.142;9.960;2023-06-22T21:25:05;100109.41;;;18.13;100.00
39443;BME280;25147;52.142;9.960;2023-06-22T21:27:33;100000.50;;;17.34;100.00
39443;BME280;25147;52.142;9.960;2023-06-22T21:30:00;100005.97;;;17.31;100.00
39443;BME280;25147;52.142;9.960;2023-06-22T21:32:27;100178.53;;;18.09;100.00
39443;BME280;25147;52.142;9.960;2023-06-22T21:34:54;100163.81;;;18.03;100.00
39443;BME280;25147;52.142;9.960;2023-06-22T21:37:23;100144.97;;;17.92;100.00
39443;BME280;25147;52.142;9.960;2023-06-22T21:39:50;99979.09;;;16.86;100.00
39443;BME280;25147;52.142;9.960;2023-06-22T21:42:17;100161.28;;;17.82;100.00
39443;BME280;25147;52.142;9.960;2023-06-22T21:44:44;100161.47;;;17.79;100.00
39443;BME280;25147;52.142;9.960;2023-06-22T21:47:11;100192.41;;;17.96;100.00
39443;BME280;25147;52.142;9.960;2023-06-22T21:49:38;100113.22;;;17.38;100.00
39443;BME280;25147;52.142;9.960;2023-06-22T21:52:07;100155.63;;;17.73;100.00
39443;BME280;25147;52.142;9.960;2023-06-22T21:54:40;99985.06;;;16.53;100.00
39443;BME280;25147;52.142;9.960;2023-06-22T21:57:09;99973.22;;;16.43;100.00
39443;BME280;25147;52.142;9.960;2023-06-22T21:59:36;100060.00;;;16.90;100.00
39443;BME280;25147;52.142;9.960;2023-06-22T22:02:03;100188.19;;;17.75;100.00
39443;BME280;25147;52.142;9.960;2023-06-22T22:04:30;100192.75;;;17.71;100.00
39443;BME280;25147;52.142;9.960;2023-06-22T22:06:57;99956.78;;;16.36;100.00
39443;BME280;25147;52.142;9.960;2023-06-22T22:09:23;100204.41;;;17.86;100.00
39443;BME280;25147;52.142;9.960;2023-06-22T22:11:51;100133.75;;;17.33;100.00
39443;BME280;25147;52.142;9.960;2023-06-22T22:14:18;99964.66;;;16.38;100.00
39443;BME280;25147;52.142;9.960;2023-06-22T22:16:45;100158.00;;;17.42;100.00
39443;BME280;25147;52.142;9.960;2023-06-22T22:19:12;100206.53;;;17.78;100.00
39443;BME280;25147;52.142;9.960;2023-06-22T22:21:40;100208.41;;;17.76;100.00
39443;BME280;25147;52.142;9.960;2023-06-22T22:24:08;100209.38;;;17.75;100.00
39443;BME280;25147;52.142;9.960;2023-06-22T22:26:45;100200.72;;;17.71;100.00
39443;BME280;25147;52.142;9.960;2023-06-22T22:29:16;100069.56;;;16.93;100.00
39443;BME280;25147;52.142;9.960;2023-06-22T22:31:43;100216.28;;;17.77;100.00
39443;BME280;25147;52.142;9.960;2023-06-22T22:34:10;100168.28;;;17.49;100.00
39443;BME280;25147;52.142;9.960;2023-06-22T22:36:37;100178.75;;;17.69;100.00
39443;BME280;25147;52.142;9.960;2023-06-22T22:39:05;100180.44;;;17.70;100.00
39443;BME280;25147;52.142;9.960;2023-06-22T22:41:32;100181.47;;;17.68;100.00
39443;BME280;25147;52.142;9.960;2023-06-22T22:43:59;100166.47;;;17.49;100.00
39443;BME280;25147;52.142;9.960;2023-06-22T22:46:27;100181.22;;;17.72;100.00
39443;BME280;25147;52.142;9.960;2023-06-22T22:48:57;100101.97;;;17.15;100.00
39443;BME280;25147;52.142;9.960;2023-06-22T22:51:27;100160.28;;;17.68;100.00
39443;BME280;25147;52.142;9.960;2023-06-22T22:53:54;100073.25;;;17.08;100.00
39443;BME280;25147;52.142;9.960;2023-06-22T22:56:21;99931.66;;;16.28;100.00
39443;BME280;25147;52.142;9.960;2023-06-22T22:58:49;99934.97;;;16.33;100.00
39443;BME280;25147;52.142;9.960;2023-06-22T23:01:16;99913.97;;;16.30;100.00
39443;BME280;25147;52.142;9.960;2023-06-22T23:03:45;100163.47;;;17.74;100.00
39443;BME280;25147;52.142;9.960;2023-06-22T23:06:12;100101.03;;;17.53;100.00
39443;BME280;25147;52.142;9.960;2023-06-22T23:08:38;100142.94;;;17.79;100.00
39443;BME280;25147;52.142;9.960;2023-06-22T23:11:07;100057.09;;;17.31;100.00
39443;BME280;25147;52.142;9.960;2023-06-22T23:13:36;100132.47;;;17.76;100.00
39443;BME280;25147;52.142;9.960;2023-06-22T23:16:03;100138.72;;;17.75;100.00
39443;BME280;25147;52.142;9.960;2023-06-22T23:18:30;100109.75;;;17.55;100.00
39443;BME280;25147;52.142;9.960;2023-06-22T23:20:58;99968.00;;;16.78;100.00
39443;BME280;25147;52.142;9.960;2023-06-22T23:23:28;100074.28;;;17.40;100.00
39443;BME280;25147;52.142;9.960;2023-06-22T23:25:58;100125.56;;;17.74;100.00
39443;BME280;25147;52.142;9.960;2023-06-22T23:28:25;99958.53;;;16.74;100.00
39443;BME280;25147;52.142;9.960;2023-06-22T23:30:54;100038.88;;;17.08;100.00
39443;BME280;25147;52.142;9.960;2023-06-22T23:33:23;100041.84;;;17.19;100.00
39443;BME280;25147;52.142;9.960;2023-06-22T23:36:01;100024.06;;;17.03;100.00
39443;BME280;25147;52.142;9.960;2023-06-22T23:38:33;99984.19;;;16.72;100.00
39443;BME280;25147;52.142;9.960;2023-06-22T23:41:00;100073.50;;;17.38;100.00
39443;BME280;25147;52.142;9.960;2023-06-22T23:43:27;99986.38;;;16.81;100.00